Time;durP1;ratioP1;P1;durP2;ratioP2;P2;SDS_P1;SDS_P2;PMS_P1;PMS_P2;Temp;Humidity;BMP_temperature;BMP_pressure;BME280_temperature;BME280_humidity;BME280_pressure;Samples;Min_cycle;Max_cycle;Signal;HPM_P1;HPM_P2
2022/01/15 00:01:58;;;;;;;21.92;2.75;;;6.00;99.90;;;;;;6099811;23;20048;-83
2022/01/15 00:04:24;;;;;;;11.02;1.80;;;6.00;99.90;;;;;;6124099;23;20488;-83
2022/01/15 00:06:50;;;;;;;12.43;1.90;;;6.00;99.90;;;;;;6099708;23;20045;-83
2022/01/15 00:09:15;;;;;;;23.20;3.00;;;6.00;99.90;;;;;;6074193;23;20458;-84
2022/01/15 00:11:44;;;;;;;10.63;1.70;;;6.00;99.90;;;;;;6124110;23;20033;-84
2022/01/15 00:14:32;;;;;;;32.75;3.72;;;6.00;99.90;;;;;;6124495;23;20018;-84
2022/01/15 00:17:14;;;;;;;47.55;3.28;;;6.00;99.90;;;;;;6099890;23;20022;-83
2022/01/15 00:19:44;;;;;;;6.18;1.80;;;5.90;99.90;;;;;;6097887;23;20171;-83
2022/01/15 00:22:17;;;;;;;12.20;2.15;;;6.00;99.90;;;;;;6052636;23;20026;-83
2022/01/15 00:24:53;;;;;;;13.43;3.47;;;5.90;99.90;;;;;;6061645;23;20105;-85
2022/01/15 00:27:19;;;;;;;15.55;3.28;;;5.90;99.90;;;;;;6098118;23;20026;-83
2022/01/15 00:29:45;;;;;;;9.35;3.00;;;5.90;99.90;;;;;;6125364;23;20442;-83
2022/01/15 00:32:11;;;;;;;14.70;2.40;;;5.90;99.90;;;;;;6123875;23;20026;-83
2022/01/15 00:34:37;;;;;;;12.88;2.20;;;5.90;99.90;;;;;;6123653;23;20021;-83
2022/01/15 00:37:03;;;;;;;15.07;2.40;;;5.90;99.90;;;;;;6099024;23;20064;-83
2022/01/15 00:39:30;;;;;;;12.88;1.48;;;5.90;99.90;;;;;;6125704;23;20768;-83
2022/01/15 00:41:55;;;;;;;15.98;2.05;;;5.90;99.90;;;;;;6107551;23;20350;-85
2022/01/15 00:44:21;;;;;;;10.15;1.77;;;5.90;99.90;;;;;;6132178;23;20021;-84
2022/01/15 00:46:48;;;;;;;8.73;1.45;;;5.90;99.90;;;;;;6076036;23;20169;-83
2022/01/15 00:49:14;;;;;;;10.50;1.50;;;5.90;99.90;;;;;;6051784;23;20022;-84
2022/01/15 00:51:40;;;;;;;13.57;1.55;;;5.90;99.90;;;;;;6099688;23;20029;-83
2022/01/15 00:54:06;;;;;;;4.97;1.52;;;5.90;99.90;;;;;;6099491;23;20458;-84
2022/01/15 00:56:32;;;;;;;8.23;1.08;;;5.90;99.90;;;;;;6099868;23;20057;-84
2022/01/15 00:58:58;;;;;;;12.95;1.60;;;5.90;99.90;;;;;;6100871;23;20029;-84
2022/01/15 01:01:24;;;;;;;3.30;1.02;;;5.90;99.90;;;;;;6103647;23;20029;-84
2022/01/15 01:03:50;;;;;;;3.45;1.02;;;5.90;99.90;;;;;;6103055;23;20025;-83
2022/01/15 01:06:16;;;;;;;5.28;0.90;;;5.90;99.90;;;;;;6125486;23;20030;-84
2022/01/15 01:08:43;;;;;;;10.23;1.20;;;5.90;99.90;;;;;;6074446;23;20025;-84
2022/01/15 01:11:16;;;;;;;5.68;0.80;;;5.90;99.90;;;;;;6075350;23;20480;-84
2022/01/15 01:20:04;;;;;;;15.65;1.27;;;5.90;99.90;;;;;;6052691;23;20165;-84
2022/01/15 01:24:29;;;;;;;22.30;1.25;;;5.80;99.90;;;;;;6082049;23;20033;-84
2022/01/15 01:26:59;;;;;;;11.65;1.05;;;5.80;99.90;;;;;;6106636;23;20112;-84
2022/01/15 01:34:27;;;;;;;16.95;1.05;;;5.80;99.90;;;;;;6102938;23;20512;-83
2022/01/15 01:39:24;;;;;;;21.38;1.60;;;5.70;99.90;;;;;;6124852;23;20025;-84
2022/01/15 01:42:39;;;;;;;7.18;0.95;;;5.70;99.90;;;;;;6123078;23;20033;-85
2022/01/15 01:44:42;;;;;;;5.20;0.60;;;5.70;99.90;;;;;;6087487;23;20058;-84
2022/01/15 01:47:24;;;;;;;11.35;0.90;;;5.60;99.90;;;;;;6125151;23;20033;-83
2022/01/15 01:49:50;;;;;;;24.85;1.50;;;5.60;99.90;;;;;;6099124;23;20022;-82
2022/01/15 01:52:16;;;;;;;9.38;0.95;;;5.50;99.90;;;;;;6123304;23;20060;-84
2022/01/15 01:54:42;;;;;;;17.50;1.05;;;5.40;99.90;;;;;;6099265;23;20022;-83
2022/01/15 01:57:07;;;;;;;3.90;0.70;;;5.40;99.90;;;;;;6122832;23;20331;-82
2022/01/15 01:59:33;;;;;;;4.53;0.50;;;5.40;99.90;;;;;;6127226;23;20030;-83
2022/01/15 02:01:59;;;;;;;10.45;0.85;;;5.40;99.90;;;;;;6127222;23;20026;-82
2022/01/15 02:04:25;;;;;;;14.77;0.70;;;5.30;99.90;;;;;;6125928;23;20165;-83
2022/01/15 02:06:51;;;;;;;3.92;0.25;;;5.30;99.90;;;;;;6104542;23;20022;-84
2022/01/15 02:09:20;;;;;;;3.13;0.20;;;5.20;99.90;;;;;;6106673;23;20026;-83
2022/01/15 02:11:46;;;;;;;3.95;0.30;;;5.30;99.90;;;;;;6126866;23;20026;-84
2022/01/15 02:14:27;;;;;;;7.65;0.35;;;5.30;99.90;;;;;;6127000;23;20101;-83
2022/01/15 02:16:53;;;;;;;4.32;0.20;;;5.30;99.90;;;;;;6100561;23;20026;-82
2022/01/15 02:19:19;;;;;;;4.75;0.30;;;5.30;99.90;;;;;;6076788;23;20394;-82
2022/01/15 02:25:08;;;;;;;15.40;0.60;;;5.30;99.90;;;;;;6042194;23;20026;-82
2022/01/15 02:27:35;;;;;;;24.05;1.00;;;5.30;99.90;;;;;;6042762;23;20060;-82
2022/01/15 02:30:04;;;;;;;12.35;0.60;;;5.30;99.90;;;;;;6045157;23;20364;-83
2022/01/15 02:32:34;;;;;;;21.83;0.80;;;5.30;99.90;;;;;;6065920;23;20459;-82
2022/01/15 02:35:03;;;;;;;28.42;1.00;;;5.20;99.90;;;;;;6016593;23;20493;-84
2022/01/15 02:37:32;;;;;;;9.35;0.50;;;5.20;99.90;;;;;;6065375;23;20069;-82
2022/01/15 02:39:58;;;;;;;11.15;0.50;;;5.20;99.90;;;;;;6041517;23;20537;-83
2022/01/15 02:42:29;;;;;;;5.20;0.43;;;5.20;99.90;;;;;;6041646;23;20041;-82
2022/01/15 02:45:00;;;;;;;8.10;0.30;;;5.20;99.90;;;;;;6089836;23;20023;-83
2022/01/15 02:50:11;;;;;;;18.67;0.73;;;5.20;99.90;;;;;;6041712;23;20526;-83
2022/01/15 02:52:37;;;;;;;6.90;0.30;;;5.20;99.90;;;;;;6038144;23;20034;-81
2022/01/15 02:55:25;;;;;;;0.47;0.10;;;5.20;99.90;;;;;;6123878;23;20021;-83
2022/01/15 02:57:51;;;;;;;19.55;0.70;;;5.20;99.90;;;;;;6065886;23;20478;-82
2022/01/15 03:00:18;;;;;;;11.80;0.45;;;5.20;99.90;;;;;;6067956;23;20076;-82
2022/01/15 03:02:44;;;;;;;9.23;0.40;;;5.20;99.90;;;;;;6017765;23;20050;-83
2022/01/15 03:05:10;;;;;;;11.15;0.35;;;5.20;99.90;;;;;;6041354;23;20027;-83
2022/01/15 03:07:36;;;;;;;8.63;0.35;;;5.20;99.90;;;;;;6041297;23;20023;-82
2022/01/15 03:10:04;;;;;;;0.30;0.10;;;5.20;99.90;;;;;;6017130;23;20351;-82
2022/01/15 03:12:30;;;;;;;1.95;0.13;;;5.20;99.90;;;;;;6065282;23;20023;-82
2022/01/15 03:15:00;;;;;;;6.07;0.20;;;5.20;99.90;;;;;;6041479;23;20382;-82
2022/01/15 03:17:27;;;;;;;3.53;0.25;;;5.20;99.90;;;;;;6065267;23;20472;-82
2022/01/15 03:20:03;;;;;;;2.00;0.10;;;5.20;99.90;;;;;;6040187;23;20470;-84
2022/01/15 03:22:35;;;;;;;2.00;0.20;;;5.20;99.90;;;;;;6041376;23;20086;-82
2022/01/15 03:25:04;;;;;;;2.65;0.50;;;5.20;99.90;;;;;;6041475;23;20514;-82
2022/01/15 03:27:39;;;;;;;4.03;0.28;;;5.20;99.90;;;;;;6016924;23;20054;-84
2022/01/15 03:30:07;;;;;;;3.10;0.20;;;5.20;99.90;;;;;;6109521;23;20021;-82
2022/01/15 03:32:34;;;;;;;4.95;0.30;;;5.20;99.90;;;;;;6102453;23;20465;-83
2022/01/15 03:34:59;;;;;;;0.80;0.32;;;5.20;99.90;;;;;;6125575;23;20033;-82
2022/01/15 03:37:27;;;;;;;3.35;0.30;;;5.20;99.90;;;;;;6108623;23;20026;-84
2022/01/15 03:39:53;;;;;;;11.90;0.50;;;5.20;99.90;;;;;;6070774;23;20053;-82
2022/01/15 03:42:19;;;;;;;4.75;0.20;;;5.20;99.90;;;;;;6023830;23;20078;-82
2022/01/15 03:44:48;;;;;;;0.68;0.10;;;5.20;99.90;;;;;;6046907;23;20485;-83
2022/01/15 03:47:15;;;;;;;2.88;0.20;;;5.20;99.90;;;;;;6023767;23;20030;-82
2022/01/15 03:49:41;;;;;;;1.13;0.20;;;5.20;99.90;;;;;;6071458;23;20033;-82
2022/01/15 03:52:14;;;;;;;2.47;0.22;;;5.20;99.90;;;;;;6047122;23;20033;-82
2022/01/15 03:54:40;;;;;;;6.18;0.60;;;5.20;99.90;;;;;;6024895;23;20022;-82
2022/01/15 03:57:06;;;;;;;1.55;0.28;;;5.20;99.90;;;;;;6047766;23;20034;-81
2022/01/15 03:59:32;;;;;;;6.20;0.50;;;5.20;99.90;;;;;;6095397;23;20090;-81
2022/01/15 04:01:58;;;;;;;1.67;0.38;;;5.20;99.90;;;;;;6047027;23;20458;-81
2022/01/15 04:04:24;;;;;;;3.60;0.30;;;5.30;99.90;;;;;;6048123;23;20030;-82
2022/01/15 04:06:50;;;;;;;4.60;0.65;;;5.20;99.90;;;;;;6075676;23;20363;-84
2022/01/15 04:09:17;;;;;;;18.55;1.00;;;5.30;99.90;;;;;;6023488;23;20467;-82
2022/01/15 04:11:45;;;;;;;5.57;0.52;;;5.20;99.90;;;;;;6023047;23;20037;-83
2022/01/15 04:14:11;;;;;;;3.42;0.43;;;5.20;99.90;;;;;;6099094;23;20022;-84
2022/01/15 04:16:37;;;;;;;4.03;0.50;;;5.20;99.90;;;;;;6023112;23;20525;-83
2022/01/15 04:19:06;;;;;;;5.28;0.28;;;5.30;99.90;;;;;;6070552;23;20026;-82
2022/01/15 04:21:32;;;;;;;4.72;0.50;;;5.30;99.90;;;;;;6094603;23;20418;-82
2022/01/15 04:23:58;;;;;;;1.95;0.30;;;5.30;99.90;;;;;;6094708;23;20018;-83
2022/01/15 04:26:25;;;;;;;4.80;1.17;;;5.30;99.90;;;;;;6094626;23;20037;-83
2022/01/15 04:28:53;;;;;;;7.47;0.88;;;5.30;99.90;;;;;;6094707;23;20108;-83
2022/01/15 04:31:20;;;;;;;2.22;0.38;;;5.30;99.90;;;;;;6070656;23;20034;-83
2022/01/15 04:33:46;;;;;;;2.38;0.45;;;5.30;99.90;;;;;;6095330;23;20023;-82
2022/01/15 04:36:14;;;;;;;5.72;0.65;;;5.30;99.90;;;;;;6094262;23;20022;-83
2022/01/15 04:38:42;;;;;;;7.50;0.82;;;5.30;99.90;;;;;;6103856;23;20046;-85
2022/01/15 04:41:09;;;;;;;7.97;0.85;;;5.30;99.90;;;;;;6125839;23;20373;-82
2022/01/15 04:43:36;;;;;;;15.20;1.42;;;5.30;99.90;;;;;;6099693;23;20358;-82
2022/01/15 04:46:02;;;;;;;27.85;1.60;;;5.30;99.90;;;;;;6074985;23;20049;-83
2022/01/15 04:48:28;;;;;;;24.65;1.38;;;5.30;99.90;;;;;;6075180;23;20347;-85
2022/01/15 04:50:54;;;;;;;24.98;1.30;;;5.20;99.90;;;;;;6099021;23;20450;-83
2022/01/15 04:53:20;;;;;;;10.63;1.25;;;5.20;99.90;;;;;;6126238;23;20476;-85
2022/01/15 04:55:46;;;;;;;4.78;0.70;;;5.30;99.90;;;;;;6128541;23;20026;-84
2022/01/15 04:58:12;;;;;;;3.95;1.02;;;5.20;99.90;;;;;;6106005;23;20454;-82
2022/01/15 05:00:38;;;;;;;4.00;0.80;;;5.20;99.90;;;;;;6099850;23;20030;-83
2022/01/15 05:03:04;;;;;;;6.00;1.10;;;5.20;99.90;;;;;;6099176;23;20084;-83
2022/01/15 05:05:30;;;;;;;15.88;1.50;;;5.20;99.90;;;;;;6123467;23;20105;-82
2022/01/15 05:07:57;;;;;;;27.08;2.30;;;5.20;99.90;;;;;;6099142;23;20079;-84
2022/01/15 05:10:28;;;;;;;21.90;1.88;;;5.20;99.90;;;;;;6101333;23;20342;-83
2022/01/15 05:13:00;;;;;;;6.97;1.30;;;5.20;99.90;;;;;;6077879;23;20033;-82
2022/01/15 05:15:25;;;;;;;5.68;1.20;;;5.30;99.90;;;;;;6051276;23;20026;-82
2022/01/15 05:17:51;;;;;;;6.38;1.23;;;5.30;99.90;;;;;;6123568;23;20022;-82
2022/01/15 05:20:19;;;;;;;7.32;1.58;;;5.20;99.90;;;;;;6125624;23;20026;-82
2022/01/15 05:22:46;;;;;;;4.75;1.10;;;5.30;99.90;;;;;;6124051;23;20073;-82
2022/01/15 05:25:17;;;;;;;5.53;1.02;;;5.30;99.90;;;;;;6098118;23;20323;-81
2022/01/15 05:27:44;;;;;;;5.45;1.05;;;5.30;99.90;;;;;;6099509;23;20017;-82
2022/01/15 05:30:11;;;;;;;4.22;1.05;;;5.30;99.90;;;;;;6051653;23;20100;-82
2022/01/15 05:32:37;;;;;;;3.70;1.05;;;5.30;99.90;;;;;;6099209;23;20057;-82
2022/01/15 05:35:03;;;;;;;4.55;1.08;;;5.30;99.90;;;;;;6099710;23;20033;-84
2022/01/15 05:37:29;;;;;;;4.65;0.98;;;5.30;99.90;;;;;;6099374;23;20069;-85
2022/01/15 05:39:55;;;;;;;5.85;1.15;;;5.30;99.90;;;;;;6095859;23;20053;-83
2022/01/15 05:42:21;;;;;;;3.53;0.68;;;5.30;99.90;;;;;;6073523;23;20025;-83
2022/01/15 05:44:47;;;;;;;6.35;1.10;;;5.30;99.90;;;;;;6051516;23;20062;-84
2022/01/15 05:47:21;;;;;;;6.88;1.30;;;5.30;99.90;;;;;;6096201;23;20077;-83
2022/01/15 05:49:51;;;;;;;6.60;1.63;;;5.30;99.90;;;;;;6094791;23;20037;-83
2022/01/15 05:52:18;;;;;;;4.53;0.95;;;5.30;99.90;;;;;;6048245;23;20026;-82
2022/01/15 05:54:43;;;;;;;3.72;1.20;;;5.30;99.90;;;;;;6024549;23;20026;-81
2022/01/15 05:57:09;;;;;;;5.57;1.30;;;5.30;99.90;;;;;;6071980;23;20026;-81
2022/01/15 05:59:35;;;;;;;4.57;1.33;;;5.30;99.90;;;;;;6098372;23;20058;-83
2022/01/15 06:02:00;;;;;;;6.57;1.60;;;5.30;99.90;;;;;;6047938;23;20023;-84
2022/01/15 06:04:26;;;;;;;6.78;2.45;;;5.30;99.90;;;;;;6095040;23;20022;-83
2022/01/15 06:06:52;;;;;;;5.70;1.60;;;5.30;99.90;;;;;;6095622;23;20024;-84
2022/01/15 06:09:18;;;;;;;5.35;1.60;;;5.30;99.90;;;;;;6072547;23;20458;-82
2022/01/15 06:11:44;;;;;;;5.68;1.88;;;5.30;99.90;;;;;;6096849;23;20037;-82
2022/01/15 06:14:10;;;;;;;5.70;1.85;;;5.30;99.90;;;;;;6073581;23;20065;-83
2022/01/15 06:16:36;;;;;;;6.43;2.08;;;5.30;99.90;;;;;;6075500;23;20030;-82
2022/01/15 06:19:02;;;;;;;5.18;1.80;;;5.30;99.90;;;;;;6077850;23;20019;-83
2022/01/15 06:21:28;;;;;;;5.57;2.25;;;5.30;99.90;;;;;;6103247;23;20034;-84
2022/01/15 06:23:54;;;;;;;4.47;1.60;;;5.30;99.90;;;;;;6048673;23;20101;-83
2022/01/15 06:26:20;;;;;;;8.05;2.15;;;5.30;99.90;;;;;;6047874;23;20109;-81
2022/01/15 06:28:49;;;;;;;7.45;2.58;;;5.30;99.90;;;;;;6071633;23;20497;-83
2022/01/15 06:31:15;;;;;;;5.65;2.40;;;5.30;99.90;;;;;;6048073;23;20521;-83
2022/01/15 06:33:59;;;;;;;6.38;2.63;;;5.20;99.90;;;;;;6071652;23;20157;-83
2022/01/15 06:36:29;;;;;;;7.05;2.75;;;5.30;99.90;;;;;;6051924;23;20026;-82
2022/01/15 06:38:55;;;;;;;8.63;3.60;;;5.30;99.90;;;;;;6100829;23;20050;-82
2022/01/15 06:41:21;;;;;;;7.20;3.20;;;5.20;99.90;;;;;;6125634;23;20026;-83
2022/01/15 06:43:48;;;;;;;7.80;3.17;;;5.20;99.90;;;;;;6124408;23;20089;-81
2022/01/15 06:46:14;;;;;;;9.90;3.00;;;5.20;99.90;;;;;;6100990;23;20071;-81
2022/01/15 06:48:40;;;;;;;6.93;2.80;;;5.20;99.90;;;;;;6101509;23;20021;-82
2022/01/15 06:51:12;;;;;;;6.03;2.20;;;5.20;99.90;;;;;;6126923;23;20076;-81
2022/01/15 06:53:38;;;;;;;5.68;2.42;;;5.20;99.90;;;;;;6103930;23;20032;-86
2022/01/15 06:56:04;;;;;;;5.32;2.00;;;5.20;99.90;;;;;;6101971;23;20053;-83
2022/01/15 06:58:29;;;;;;;9.52;2.65;;;5.20;99.90;;;;;;6100408;23;20026;-82
2022/01/15 07:00:55;;;;;;;5.35;2.38;;;5.20;99.90;;;;;;6076419;23;20041;-83
2022/01/15 07:03:21;;;;;;;8.48;3.05;;;5.20;99.90;;;;;;6128597;23;20100;-83
2022/01/15 07:05:47;;;;;;;9.50;3.15;;;5.20;99.90;;;;;;6101057;23;20073;-83
2022/01/15 07:08:12;;;;;;;8.70;2.92;;;5.20;99.90;;;;;;6076254;23;20024;-82
2022/01/15 07:10:39;;;;;;;9.57;3.35;;;5.20;99.90;;;;;;6123643;23;20030;-83
2022/01/15 07:13:26;;;;;;;6.40;2.33;;;5.20;99.90;;;;;;6075917;23;20025;-83
2022/01/15 07:15:54;;;;;;;6.00;2.55;;;5.20;99.90;;;;;;6101085;23;20528;-83
2022/01/15 07:18:29;;;;;;;6.05;2.35;;;5.10;99.90;;;;;;6128412;23;20353;-82
2022/01/15 07:20:55;;;;;;;5.88;2.03;;;5.10;99.90;;;;;;6124366;23;20029;-83
2022/01/15 07:23:21;;;;;;;6.35;2.63;;;5.10;99.90;;;;;;6103575;23;20076;-83
2022/01/15 07:25:47;;;;;;;7.88;2.72;;;5.10;99.90;;;;;;6100435;23;20022;-82
2022/01/15 07:28:23;;;;;;;6.82;2.28;;;5.20;99.90;;;;;;6099182;23;20030;-83
2022/01/15 07:30:49;;;;;;;6.90;2.42;;;5.20;99.90;;;;;;6076695;23;20465;-84
2022/01/15 07:33:15;;;;;;;10.32;2.78;;;5.10;99.90;;;;;;6124401;23;20029;-83
2022/01/15 07:35:43;;;;;;;6.43;2.40;;;5.10;99.90;;;;;;6126041;23;20462;-83
2022/01/15 07:38:12;;;;;;;6.15;2.55;;;5.10;99.90;;;;;;6054659;23;20543;-81
2022/01/15 07:40:37;;;;;;;7.75;2.35;;;5.10;99.90;;;;;;6095080;23;20481;-82
2022/01/15 07:43:04;;;;;;;7.10;2.03;;;5.20;99.90;;;;;;6047807;23;20133;-83
2022/01/15 07:45:29;;;;;;;7.68;3.03;;;5.10;99.90;;;;;;6074702;23;20022;-82
2022/01/15 07:47:55;;;;;;;6.53;2.35;;;5.10;99.90;;;;;;6101982;23;20463;-83
2022/01/15 07:50:40;;;;;;;8.02;2.33;;;5.10;99.90;;;;;;6101913;23;20098;-83
2022/01/15 07:53:07;;;;;;;9.95;2.25;;;5.20;99.90;;;;;;6050309;23;20018;-83
2022/01/15 07:55:33;;;;;;;7.28;2.50;;;5.20;99.90;;;;;;6049372;23;20030;-83
2022/01/15 07:57:59;;;;;;;8.32;3.10;;;5.20;99.90;;;;;;6071747;23;20513;-82
2022/01/15 08:00:26;;;;;;;8.70;2.70;;;5.20;99.90;;;;;;6094444;23;20068;-83
2022/01/15 08:02:54;;;;;;;7.43;2.85;;;5.20;99.90;;;;;;6071207;23;20064;-82
2022/01/15 08:05:19;;;;;;;11.05;4.10;;;5.20;99.90;;;;;;6070944;23;20454;-82
2022/01/15 08:07:45;;;;;;;10.07;4.55;;;5.10;99.90;;;;;;6070744;23;20026;-83
2022/01/15 08:10:11;;;;;;;10.63;4.40;;;5.20;99.90;;;;;;6070317;23;20029;-82
2022/01/15 08:12:45;;;;;;;9.32;4.20;;;5.10;99.90;;;;;;6070881;23;20030;-83
2022/01/15 08:15:11;;;;;;;9.02;3.58;;;5.10;99.90;;;;;;6071629;23;20023;-82
2022/01/15 08:17:37;;;;;;;10.65;4.68;;;5.10;99.90;;;;;;6046384;23;20489;-83
2022/01/15 08:20:03;;;;;;;12.95;5.18;;;5.10;99.90;;;;;;6095394;23;20022;-82
2022/01/15 08:22:30;;;;;;;11.85;4.32;;;5.10;99.90;;;;;;6046653;23;20018;-82
2022/01/15 08:24:56;;;;;;;13.00;4.70;;;5.10;99.90;;;;;;6046823;23;20469;-84
2022/01/15 08:27:27;;;;;;;12.43;4.90;;;5.10;99.90;;;;;;6047359;23;20042;-83
2022/01/15 08:29:53;;;;;;;15.68;5.53;;;5.10;99.90;;;;;;6075195;23;20025;-82
2022/01/15 08:32:18;;;;;;;15.40;6.28;;;5.20;99.90;;;;;;6055584;23;20065;-82
2022/01/15 08:34:45;;;;;;;13.98;5.15;;;5.20;99.90;;;;;;6099740;23;20022;-82
2022/01/15 08:37:11;;;;;;;14.13;5.30;;;5.20;99.90;;;;;;6106066;23;20026;-83
2022/01/15 08:39:36;;;;;;;12.13;4.85;;;5.20;99.90;;;;;;6122886;23;20033;-82
2022/01/15 08:42:05;;;;;;;12.25;5.18;;;5.20;99.90;;;;;;6050762;23;20449;-83
2022/01/15 08:44:31;;;;;;;13.38;4.97;;;5.20;99.90;;;;;;6075311;23;20028;-82
2022/01/15 08:47:02;;;;;;;12.25;5.05;;;5.20;99.90;;;;;;6075978;23;20021;-82
2022/01/15 08:49:28;;;;;;;12.20;4.50;;;5.20;99.90;;;;;;6099578;23;20500;-82
2022/01/15 08:51:55;;;;;;;11.25;4.60;;;5.20;99.90;;;;;;6041423;23;20058;-83
2022/01/15 08:54:21;;;;;;;11.02;5.15;;;5.20;99.90;;;;;;6040663;23;20018;-83
2022/01/15 08:56:47;;;;;;;12.55;5.00;;;5.20;99.90;;;;;;6041397;23;20035;-83
2022/01/15 08:59:14;;;;;;;10.90;4.35;;;5.20;99.90;;;;;;6066581;23;20116;-83
2022/01/15 09:01:39;;;;;;;8.68;3.65;;;5.20;99.90;;;;;;6018015;23;20027;-83
2022/01/15 09:04:05;;;;;;;9.95;3.70;;;5.20;99.90;;;;;;6040499;23;20026;-82
2022/01/15 09:06:31;;;;;;;10.15;3.45;;;5.20;99.90;;;;;;6040499;23;20019;-82
2022/01/15 09:08:58;;;;;;;9.18;3.83;;;5.20;99.90;;;;;;6017457;23;20027;-82
2022/01/15 09:11:28;;;;;;;10.50;4.03;;;5.20;99.90;;;;;;6064745;23;20026;-83
2022/01/15 09:13:56;;;;;;;8.60;3.60;;;5.20;99.90;;;;;;6016579;23;20023;-83
2022/01/15 09:16:22;;;;;;;7.65;3.30;;;5.20;99.90;;;;;;6015111;23;20022;-83
2022/01/15 09:18:49;;;;;;;9.85;3.53;;;5.20;99.90;;;;;;6040576;23;20482;-82
2022/01/15 09:21:16;;;;;;;7.53;3.47;;;5.30;99.90;;;;;;6065593;23;20027;-83
2022/01/15 09:23:43;;;;;;;9.55;4.20;;;5.30;99.90;;;;;;6094135;23;20030;-83
2022/01/15 09:26:21;;;;;;;10.82;4.25;;;5.30;99.90;;;;;;6103188;23;20038;-83
2022/01/15 09:31:40;;;;;;;11.30;4.55;;;5.30;99.90;;;;;;6123935;23;20410;-82
2022/01/15 09:34:22;;;;;;;10.20;4.38;;;5.30;99.90;;;;;;6066640;23;20078;-83
2022/01/15 09:36:48;;;;;;;11.57;4.35;;;5.30;99.90;;;;;;6064746;23;20035;-83
2022/01/15 09:39:14;;;;;;;11.43;5.05;;;5.40;99.90;;;;;;6040654;23;20456;-82
2022/01/15 09:41:46;;;;;;;13.55;5.03;;;5.40;99.90;;;;;;6040616;23;20030;-83
2022/01/15 09:44:14;;;;;;;11.85;5.07;;;5.40;99.90;;;;;;6040263;23;20042;-84
2022/01/15 09:46:40;;;;;;;12.48;5.57;;;5.40;99.90;;;;;;6064371;23;20030;-83
2022/01/15 09:49:10;;;;;;;17.40;6.63;;;5.40;99.90;;;;;;6016822;23;20436;-83
2022/01/15 09:51:36;;;;;;;13.85;6.10;;;5.40;99.90;;;;;;6040194;23;20027;-82
2022/01/15 09:54:04;;;;;;;17.73;7.00;;;5.40;99.90;;;;;;6040445;23;20033;-85
2022/01/15 09:56:29;;;;;;;18.55;6.43;;;5.40;99.90;;;;;;6017025;23;20023;-83
2022/01/15 09:58:57;;;;;;;15.73;6.60;;;5.40;99.90;;;;;;6041342;23;20075;-83
2022/01/15 10:01:29;;;;;;;16.70;7.22;;;5.40;99.90;;;;;;6064972;23;20027;-81
2022/01/15 10:03:58;;;;;;;15.88;6.60;;;5.50;99.90;;;;;;6061669;23;20023;-82
2022/01/15 10:06:24;;;;;;;19.27;7.55;;;5.50;99.90;;;;;;6071628;23;20031;-82
2022/01/15 10:09:05;;;;;;;17.00;7.70;;;5.50;99.90;;;;;;6051640;23;20082;-82
2022/01/15 10:11:47;;;;;;;20.13;7.90;;;5.50;99.90;;;;;;6075886;23;20026;-84
2022/01/15 10:14:27;;;;;;;20.25;8.30;;;5.50;99.90;;;;;;6045817;23;20029;-82
2022/01/15 10:16:55;;;;;;;21.15;8.23;;;5.50;99.90;;;;;;6047335;23;20534;-82
2022/01/15 10:19:37;;;;;;;21.50;8.07;;;5.40;99.90;;;;;;6093690;23;20018;-82
2022/01/15 10:22:12;;;;;;;15.88;6.32;;;5.50;99.90;;;;;;6070069;23;20030;-83
2022/01/15 10:24:39;;;;;;;14.65;5.75;;;5.50;99.90;;;;;;6096010;23;20097;-82
2022/01/15 10:27:36;;;;;;;17.90;6.45;;;5.40;99.90;;;;;;6098051;23;20081;-83
2022/01/15 10:30:10;;;;;;;14.98;6.05;;;5.40;99.90;;;;;;6097666;23;20030;-82
2022/01/15 10:32:51;;;;;;;19.45;6.82;;;5.40;99.90;;;;;;6047680;23;20085;-83
2022/01/15 10:35:17;;;;;;;12.60;5.55;;;5.40;99.90;;;;;;6071476;23;20061;-82
2022/01/15 10:37:48;;;;;;;15.15;7.38;;;5.40;99.90;;;;;;6071338;23;20030;-82
2022/01/15 10:40:14;;;;;;;13.93;6.47;;;5.40;99.90;;;;;;6048217;23;20069;-82
2022/01/15 10:42:40;;;;;;;16.65;6.95;;;5.40;99.90;;;;;;6096662;23;20018;-84
2022/01/15 10:45:17;;;;;;;14.13;5.60;;;5.40;99.90;;;;;;6097529;23;20069;-82
2022/01/15 10:47:47;;;;;;;14.43;6.22;;;5.40;99.90;;;;;;6072080;23;20097;-84
2022/01/15 10:50:23;;;;;;;16.67;6.68;;;5.40;99.90;;;;;;6096993;23;20023;-81
2022/01/15 10:52:53;;;;;;;14.40;6.28;;;5.40;99.90;;;;;;6048410;23;20026;-82
2022/01/15 10:55:31;;;;;;;15.43;6.65;;;5.40;99.90;;;;;;6046384;23;20620;-81
2022/01/15 10:58:06;;;;;;;12.10;5.53;;;5.40;99.90;;;;;;6095759;23;20470;-82
2022/01/15 11:00:41;;;;;;;16.00;7.55;;;5.40;99.90;;;;;;6050732;23;20085;-83
2022/01/15 11:03:14;;;;;;;16.58;6.72;;;5.50;99.90;;;;;;6104338;23;20021;-82
2022/01/15 11:05:42;;;;;;;14.50;6.32;;;5.40;99.90;;;;;;6075084;23;20033;-82
2022/01/15 11:08:14;;;;;;;20.05;7.18;;;5.40;99.90;;;;;;6071979;23;20336;-82
2022/01/15 11:11:02;;;;;;;17.08;7.78;;;5.50;99.90;;;;;;6097557;23;20026;-82
2022/01/15 11:13:30;;;;;;;20.30;7.78;;;5.50;99.90;;;;;;6095892;23;20496;-82
2022/01/15 11:16:08;;;;;;;20.40;7.88;;;5.40;99.90;;;;;;6097786;23;20023;-82
2022/01/15 11:18:37;;;;;;;18.38;8.68;;;5.50;99.90;;;;;;6098079;23;20150;-81
2022/01/15 11:21:09;;;;;;;18.85;8.07;;;5.50;99.90;;;;;;6073680;23;20462;-82
2022/01/15 11:23:38;;;;;;;17.90;8.50;;;5.50;99.90;;;;;;6047783;23;20021;-83
2022/01/15 11:26:16;;;;;;;19.80;9.32;;;5.50;99.90;;;;;;6025288;23;20023;-83
2022/01/15 11:28:43;;;;;;;19.20;8.20;;;5.50;99.90;;;;;;6050078;23;20451;-81
2022/01/15 11:31:22;;;;;;;19.33;8.73;;;5.50;99.90;;;;;;6047324;23;20470;-83
2022/01/15 11:33:50;;;;;;;22.42;9.68;;;5.50;99.90;;;;;;6071543;23;20023;-82
2022/01/15 11:36:30;;;;;;;28.92;9.98;;;5.50;99.90;;;;;;6047868;23;20482;-82
2022/01/15 11:38:58;;;;;;;23.25;11.20;;;5.50;99.90;;;;;;6047296;23;20096;-81
2022/01/15 11:41:27;;;;;;;18.63;8.25;;;5.50;99.90;;;;;;6047936;23;20022;-82
2022/01/15 11:44:05;;;;;;;17.35;7.70;;;5.50;99.90;;;;;;6071502;23;20026;-81
2022/01/15 11:46:41;;;;;;;18.50;7.53;;;5.40;99.90;;;;;;6066657;23;20041;-82
2022/01/15 11:49:44;;;;;;;19.52;8.27;;;5.40;99.90;;;;;;6069948;23;20023;-82
2022/01/15 11:52:11;;;;;;;23.67;9.57;;;5.40;99.90;;;;;;5953999;24;20029;-82
2022/01/15 11:54:44;;;;;;;22.98;10.00;;;5.40;99.90;;;;;;5929845;24;20404;-81
2022/01/15 11:57:45;;;;;;;23.58;9.05;;;5.50;99.90;;;;;;5929195;24;20028;-83
2022/01/15 12:00:20;;;;;;;21.23;10.23;;;5.40;99.90;;;;;;5929567;24;20100;-82
2022/01/15 12:02:56;;;;;;;24.00;10.68;;;5.40;99.90;;;;;;5929676;24;20032;-85
2022/01/15 12:05:22;;;;;;;23.52;10.10;;;5.40;99.90;;;;;;5931323;24;20066;-85
2022/01/15 12:08:08;;;;;;;28.48;10.90;;;5.40;99.90;;;;;;5928593;24;20043;-83
2022/01/15 12:10:41;;;;;;;27.48;12.20;;;5.40;99.90;;;;;;5951846;24;20552;-82
2022/01/15 12:13:34;;;;;;;26.33;11.25;;;5.40;99.90;;;;;;5929215;24;20025;-82
2022/01/15 12:16:15;;;;;;;24.45;11.23;;;5.50;99.90;;;;;;5928317;24;20025;-82
2022/01/15 12:18:47;;;;;;;29.67;12.73;;;5.40;99.90;;;;;;5928721;24;20067;-84
2022/01/15 12:21:44;;;;;;;29.17;13.40;;;5.40;99.90;;;;;;5929520;24;20060;-83
2022/01/15 12:24:44;;;;;;;34.13;12.85;;;5.40;99.90;;;;;;5945551;24;20027;-83
2022/01/15 12:27:12;;;;;;;35.50;13.77;;;5.40;99.90;;;;;;6063790;23;20018;-81
2022/01/15 12:30:13;;;;;;;35.13;14.13;;;5.40;99.90;;;;;;6050710;23;20033;-83
2022/01/15 12:32:42;;;;;;;42.05;14.85;;;5.40;99.90;;;;;;6046264;23;20493;-82
2022/01/15 12:35:22;;;;;;;30.70;12.00;;;5.40;99.90;;;;;;6098300;23;20343;-82
2022/01/15 12:37:54;;;;;;;47.33;14.60;;;5.30;99.90;;;;;;6098047;23;20026;-83
2022/01/15 12:40:22;;;;;;;39.35;14.32;;;5.30;99.90;;;;;;6051018;23;20022;-83
2022/01/15 12:42:56;;;;;;;41.88;14.63;;;5.30;99.90;;;;;;6071520;23;20018;-83
2022/01/15 12:45:23;;;;;;;57.33;14.93;;;5.30;99.90;;;;;;6096700;23;20104;-84
2022/01/15 12:47:49;;;;;;;45.63;13.38;;;5.30;99.90;;;;;;6073177;23;20029;-82
2022/01/15 12:50:16;;;;;;;42.58;12.93;;;5.30;99.90;;;;;;5990067;23;20024;-83
2022/01/15 12:52:42;;;;;;;46.55;13.73;;;5.20;99.90;;;;;;6036629;23;20027;-82
2022/01/15 12:55:09;;;;;;;40.28;13.38;;;5.20;99.90;;;;;;6036426;23;20107;-83
2022/01/15 12:57:39;;;;;;;58.55;16.30;;;5.20;99.90;;;;;;6012714;23;20102;-83
2022/01/15 13:00:07;;;;;;;96.82;18.40;;;5.20;99.90;;;;;;6012591;23;20020;-83
2022/01/15 13:02:33;;;;;;;68.03;17.58;;;5.20;99.90;;;;;;6035966;23;20065;-82
2022/01/15 13:05:14;;;;;;;82.82;16.67;;;5.20;99.90;;;;;;6035782;23;20019;-82
2022/01/15 13:07:52;;;;;;;52.22;15.05;;;5.20;99.90;;;;;;6035399;23;20027;-83
2022/01/15 13:10:57;;;;;;;74.78;16.92;;;5.20;99.90;;;;;;6036406;23;20538;-82
2022/01/15 13:13:25;;;;;;;66.70;17.17;;;5.20;99.90;;;;;;6035822;23;20407;-83
2022/01/15 13:15:59;;;;;;;70.35;19.45;;;5.20;99.90;;;;;;6012179;23;20024;-83
2022/01/15 13:18:27;;;;;;;66.97;16.45;;;5.20;99.90;;;;;;6035628;23;20023;-83
2022/01/15 13:20:53;;;;;;;76.65;18.83;;;5.20;99.90;;;;;;6056274;23;20127;-83
2022/01/15 13:23:20;;;;;;;41.80;16.52;;;5.20;99.90;;;;;;6094321;23;20030;-82
2022/01/15 13:25:48;;;;;;;53.42;14.95;;;5.30;99.90;;;;;;6096323;23;20022;-83
2022/01/15 13:28:15;;;;;;;69.50;15.48;;;5.20;99.90;;;;;;6070459;23;20034;-83